Time;durP1;ratioP1;P1;durP2;ratioP2;P2;SDS_P1;SDS_P2;PMS_P1;PMS_P2;Temp;Humidity;BMP_temperature;BMP_pressure;BME280_temperature;BME280_humidity;BME280_pressure;Samples;Min_cycle;Max_cycle;Signal;HPM_P1;HPM_P2
2022/11/30 00:02:52;;;;;;;44.67;26.33;;;;;;;0.17;92.60;99818.68;2280902;78;20937;-83
2022/11/30 00:05:50;;;;;;;44.90;27.10;;;;;;;0.23;92.53;99825.52;2280756;78;20922;-84
2022/11/30 00:08:50;;;;;;;45.97;27.63;;;;;;;0.19;92.35;99817.50;2280794;78;20886;-82
2022/11/30 00:11:51;;;;;;;43.97;27.63;;;;;;;0.13;92.10;99823.50;2280547;78;20879;-82
2022/11/30 00:14:51;;;;;;;43.13;26.80;;;;;;;0.07;92.31;99827.83;2280445;78;20930;-82
2022/11/30 00:17:51;;;;;;;50.50;28.50;;;;;;;-0.01;92.15;99820.85;2280662;78;20929;-83
2022/11/30 00:20:52;;;;;;;43.97;26.30;;;;;;;-0.04;92.34;99824.49;2280598;78;20961;-83
2022/11/30 00:23:52;;;;;;;44.33;27.30;;;;;;;-0.08;92.45;99825.06;2280752;78;20897;-83
2022/11/30 00:26:53;;;;;;;43.30;24.70;;;;;;;-0.17;92.50;99824.44;2280880;78;20922;-83
2022/11/30 00:29:53;;;;;;;44.10;26.30;;;;;;;-0.24;92.71;99827.36;2280889;78;20918;-83
2022/11/30 00:32:53;;;;;;;45.90;26.50;;;;;;;-0.30;92.89;99839.76;2280826;78;21273;-82
2022/11/30 00:35:54;;;;;;;39.67;23.63;;;;;;;-0.33;92.90;99842.11;2280508;78;20903;-82
2022/11/30 00:38:54;;;;;;;46.77;28.17;;;;;;;-0.41;93.23;99836.44;2280005;78;21321;-83
2022/11/30 00:41:55;;;;;;;45.50;26.20;;;;;;;-0.49;93.46;99845.27;2279391;78;20903;-81
2022/11/30 00:44:55;;;;;;;45.97;26.77;;;;;;;-0.52;93.77;99848.91;2276592;78;20895;-83
2022/11/30 00:47:55;;;;;;;36.17;22.20;;;;;;;-0.55;93.74;99851.64;2276648;78;20967;-83
2022/11/30 00:50:56;;;;;;;125.83;31.27;;;;;;;-0.56;93.82;99849.86;2276700;78;20926;-83
2022/11/30 00:53:56;;;;;;;42.87;25.63;;;;;;;-0.60;94.04;99851.70;2276831;78;20927;-84
2022/11/30 00:56:57;;;;;;;41.07;24.13;;;;;;;-0.64;94.10;99851.88;2277752;78;20876;-83
2022/11/30 00:59:57;;;;;;;42.10;24.83;;;;;;;-0.63;93.93;99851.09;2277572;78;21338;-83
2022/11/30 01:03:01;;;;;;;38.13;23.63;;;;;;;-0.63;94.00;99857.50;2277790;78;20939;-83
2022/11/30 01:06:01;;;;;;;47.73;23.97;;;;;;;-0.66;93.86;99854.33;2277527;78;20910;-84
2022/11/30 01:09:01;;;;;;;38.50;23.57;;;;;;;-0.61;93.97;99861.06;2277931;78;20973;-83
2022/11/30 01:12:02;;;;;;;41.57;24.07;;;;;;;-0.57;93.68;99857.05;2277615;78;20911;-84
2022/11/30 01:15:02;;;;;;;48.57;22.17;;;;;;;-0.56;93.43;99857.55;2277768;78;20918;-84
2022/11/30 01:18:03;;;;;;;37.90;23.00;;;;;;;-0.54;93.32;99853.42;2277955;78;20974;-84
2022/11/30 01:21:03;;;;;;;37.03;22.47;;;;;;;-0.54;93.32;99856.87;2277793;78;20902;-84
2022/11/30 01:24:03;;;;;;;34.10;21.60;;;;;;;-0.51;93.38;99856.20;2277477;78;20939;-85
2022/11/30 01:27:07;;;;;;;35.73;22.30;;;;;;;-0.45;93.30;99857.53;2277520;78;20923;-83
2022/11/30 01:30:07;;;;;;;37.00;24.93;;;;;;;-0.43;92.80;99860.20;2277559;78;20907;-83
2022/11/30 01:33:07;;;;;;;38.43;23.27;;;;;;;-0.47;92.84;99858.20;2277788;78;20914;-84
2022/11/30 01:36:08;;;;;;;33.07;21.77;;;;;;;-0.46;92.88;99854.86;2277590;78;21293;-83
2022/11/30 01:39:08;;;;;;;36.70;22.53;;;;;;;-0.45;92.94;99855.36;2277009;78;20955;-83
2022/11/30 01:42:09;;;;;;;39.17;23.37;;;;;;;-0.46;92.72;99854.86;2277234;78;21302;-82
2022/11/30 01:45:09;;;;;;;34.73;22.50;;;;;;;-0.49;92.83;99857.20;2277443;78;20945;-84
2022/11/30 01:48:09;;;;;;;35.20;23.07;;;;;;;-0.50;92.73;99859.27;2276855;78;20934;-83
2022/11/30 01:51:10;;;;;;;37.30;22.23;;;;;;;-0.48;92.76;99857.70;2277107;78;20902;-83
2022/11/30 01:54:10;;;;;;;40.93;23.73;;;;;;;-0.48;92.73;99855.14;2277240;78;20922;-82
2022/11/30 01:57:11;;;;;;;36.80;22.97;;;;;;;-0.49;92.81;99846.94;2277118;78;20887;-82
2022/11/30 02:00:11;;;;;;;34.13;21.87;;;;;;;-0.43;92.84;99855.97;2277348;78;20962;-82
2022/11/30 02:03:12;;;;;;;34.83;22.97;;;;;;;-0.45;92.67;99851.51;2277495;78;20902;-82
2022/11/30 02:06:12;;;;;;;34.80;23.30;;;;;;;-0.42;92.85;99853.00;2277389;78;20879;-83
2022/11/30 02:09:12;;;;;;;40.97;22.53;;;;;;;-0.38;92.78;99853.72;2277000;78;21167;-82
2022/11/30 02:12:13;;;;;;;29.33;21.23;;;;;;;-0.36;92.60;99855.61;2277124;78;20879;-81
2022/11/30 02:15:13;;;;;;;38.57;23.13;;;;;;;-0.34;92.38;99854.05;2277445;78;20895;-82
2022/11/30 02:18:14;;;;;;;35.13;22.27;;;;;;;-0.36;92.35;99850.88;2277027;78;20906;-83
2022/11/30 02:21:14;;;;;;;38.43;23.50;;;;;;;-0.36;92.34;99854.72;2276787;78;20911;-82
2022/11/30 02:24:14;;;;;;;36.37;22.13;;;;;;;-0.34;92.37;99853.16;2277037;78;20942;-83
2022/11/30 02:27:15;;;;;;;31.53;21.13;;;;;;;-0.31;92.46;99854.66;2277001;78;20860;-84
2022/11/30 02:30:15;;;;;;;31.43;21.67;;;;;;;-0.26;92.40;99858.43;2277041;78;20918;-81
2022/11/30 02:33:16;;;;;;;34.70;22.27;;;;;;;-0.20;92.35;99861.81;2276933;78;21282;-83
2022/11/30 02:36:16;;;;;;;34.23;21.47;;;;;;;-0.19;91.96;99869.63;2276781;78;20907;-82
2022/11/30 02:39:16;;;;;;;34.53;21.07;;;;;;;-0.20;91.81;99872.97;2276355;78;20934;-82
2022/11/30 02:42:17;;;;;;;29.03;21.30;;;;;;;-0.27;91.66;99872.05;2276654;78;20966;-82
2022/11/30 02:45:17;;;;;;;28.17;19.93;;;;;;;-0.34;91.75;99875.85;2276704;78;20907;-83
2022/11/30 02:48:18;;;;;;;34.63;21.73;;;;;;;-0.37;92.02;99876.03;2276429;78;21294;-82
2022/11/30 02:51:18;;;;;;;31.30;22.07;;;;;;;-0.40;92.05;99874.14;2276602;78;20887;-81
2022/11/30 02:54:18;;;;;;;28.93;20.43;;;;;;;-0.42;92.23;99869.68;2276088;78;20926;-81
2022/11/30 02:57:19;;;;;;;32.67;21.30;;;;;;;-0.38;92.36;99874.24;2276884;78;20934;-81
2022/11/30 03:00:19;;;;;;;34.67;22.70;;;;;;;-0.39;92.22;99866.94;2276679;78;21286;-84
2022/11/30 03:03:20;;;;;;;29.33;20.53;;;;;;;-0.40;92.31;99867.72;2276671;78;20918;-84
2022/11/30 03:06:20;;;;;;;33.33;21.10;;;;;;;-0.48;92.44;99870.13;2276688;78;20940;-83
2022/11/30 03:09:20;;;;;;;32.23;21.83;;;;;;;-0.48;92.44;99870.13;2276960;78;21381;-83
2022/11/30 03:12:21;;;;;;;30.10;20.70;;;;;;;-0.49;92.48;99876.44;2276987;78;20911;-84
2022/11/30 03:15:21;;;;;;;34.70;20.90;;;;;;;-0.46;92.61;99872.42;2277187;78;20851;-84
2022/11/30 03:18:22;;;;;;;32.73;19.77;;;;;;;-0.42;92.61;99876.09;2277243;78;20934;-83
2022/11/30 03:21:22;;;;;;;34.50;20.87;;;;;;;-0.42;92.62;99869.29;2276916;78;20895;-82
2022/11/30 03:24:23;;;;;;;27.97;20.10;;;;;;;-0.41;92.54;99876.20;2276763;78;20910;-83
2022/11/30 03:27:23;;;;;;;30.37;20.90;;;;;;;-0.41;92.47;99874.03;2276965;78;20891;-84
2022/11/30 03:30:23;;;;;;;32.27;20.73;;;;;;;-0.38;92.58;99876.81;2276960;78;20950;-84
2022/11/30 03:33:24;;;;;;;30.63;21.10;;;;;;;-0.30;92.59;99878.24;2276889;78;20977;-84
2022/11/30 03:36:27;;;;;;;34.13;22.30;;;;;;;-0.27;92.21;99882.30;2277079;78;21305;-83
2022/11/30 03:39:27;;;;;;;78.67;23.27;;;;;;;-0.26;92.09;99882.80;2276579;78;20966;-84
2022/11/30 03:42:28;;;;;;;34.70;20.40;;;;;;;-0.21;92.14;99889.16;2277116;78;20943;-81
2022/11/30 03:45:28;;;;;;;63.50;22.17;;;;;;;-0.20;91.89;99892.22;2277414;78;21036;-81
2022/11/30 03:48:29;;;;;;;43.93;21.53;;;;;;;-0.19;91.90;99887.98;2276972;78;20958;-83
2022/11/30 03:51:34;;;;;;;33.80;20.73;;;;;;;-0.12;91.86;99886.34;2276647;78;20961;-82
2022/11/30 03:54:31;;;;;;;29.87;20.57;;;;;;;-0.07;91.44;99888.45;2255258;78;20946;-82
2022/11/30 03:57:32;;;;;;;31.87;20.10;;;;;;;-0.04;91.51;99892.52;2276229;78;20922;-84
2022/11/30 04:00:32;;;;;;;50.37;22.83;;;;;;;0.06;91.61;99886.77;2276548;78;20922;-80
2022/11/30 04:03:35;;;;;;;29.53;20.07;;;;;;;0.12;91.32;99892.33;2276719;78;20982;-83
2022/11/30 04:06:36;;;;;;;33.17;21.80;;;;;;;0.14;90.94;99887.80;2276642;78;20930;-83
2022/11/30 04:09:36;;;;;;;35.13;20.93;;;;;;;0.15;90.87;99891.25;2275908;78;21462;-83
2022/11/30 04:12:36;;;;;;;29.33;19.73;;;;;;;0.08;90.48;99890.33;2276507;78;20875;-83
2022/11/30 04:15:37;;;;;;;32.30;20.93;;;;;;;0.06;90.61;99888.05;2276496;78;20918;-84
2022/11/30 04:18:37;;;;;;;32.07;20.37;;;;;;;0.07;90.66;99889.83;2276104;78;21333;-82
2022/11/30 04:21:37;;;;;;;35.50;21.33;;;;;;;0.06;90.63;99888.05;2276159;78;20943;-82
2022/11/30 04:24:38;;;;;;;30.10;20.40;;;;;;;0.13;90.73;99896.28;2275961;78;20883;-82
2022/11/30 04:27:38;;;;;;;36.20;21.23;;;;;;;0.17;90.80;99889.69;2275782;78;20917;-82
2022/11/30 04:30:39;;;;;;;30.57;21.00;;;;;;;0.23;90.70;99892.67;2276609;78;20957;-82
2022/11/30 04:33:39;;;;;;;32.47;21.30;;;;;;;0.25;90.31;99896.23;2275998;78;20906;-83
2022/11/30 04:36:40;;;;;;;32.90;21.00;;;;;;;0.19;90.11;99895.81;2275669;78;20954;-84
2022/11/30 04:39:43;;;;;;;54.93;22.97;;;;;;;0.17;90.14;99899.95;2275919;78;20966;-81
2022/11/30 04:42:42;;;;;;;39.47;20.87;;;;;;;0.12;89.99;99906.05;2256271;78;20949;-81
2022/11/30 04:45:47;;;;;;;33.13;20.97;;;;;;;-0.07;89.99;99905.52;2279690;78;20959;-82
2022/11/30 04:48:45;;;;;;;33.03;21.30;;;;;;;-0.07;89.99;99905.52;2257254;78;20938;-81
2022/11/30 04:51:45;;;;;;;32.93;21.00;;;;;;;-0.14;90.27;99905.48;2278545;78;20891;-80
2022/11/30 04:54:46;;;;;;;32.47;20.13;;;;;;;-0.26;90.36;99905.90;2277897;78;20958;-81
2022/11/30 04:57:46;;;;;;;32.27;21.83;;;;;;;-0.37;90.74;99910.66;2277789;78;20942;-82
2022/11/30 05:00:47;;;;;;;33.13;19.70;;;;;;;-0.40;91.14;99913.01;2277089;78;20934;-79
2022/11/30 05:03:47;;;;;;;45.70;20.43;;;;;;;-0.39;91.25;99916.07;2278598;78;20899;-82
2022/11/30 05:06:47;;;;;;;35.53;21.17;;;;;;;-0.36;91.29;99925.27;2280115;78;20942;-83
2022/11/30 05:09:48;;;;;;;40.80;24.13;;;;;;;-0.32;91.51;99925.98;2279603;78;20966;-81
2022/11/30 05:12:49;;;;;;;40.50;22.70;;;;;;;-0.28;91.38;99930.55;2279390;78;20883;-82
2022/11/30 05:15:49;;;;;;;34.20;22.30;;;;;;;-0.29;91.26;99929.16;2279594;78;20945;-80
2022/11/30 05:18:49;;;;;;;38.27;20.47;;;;;;;-0.30;91.21;99930.84;2279515;78;20961;-80
2022/11/30 05:21:49;;;;;;;38.77;22.43;;;;;;;-0.25;91.34;99933.73;2278442;78;21345;-81
2022/11/30 05:24:50;;;;;;;35.77;21.40;;;;;;;-0.24;91.30;99936.41;2277696;78;20922;-82
2022/11/30 05:27:51;;;;;;;39.63;21.57;;;;;;;-0.22;91.23;99931.39;2278696;78;20898;-83
2022/11/30 05:30:51;;;;;;;46.70;21.67;;;;;;;-0.17;91.42;99932.61;2279679;78;20875;-83
2022/11/30 05:33:52;;;;;;;37.57;21.87;;;;;;;-0.12;91.23;99933.43;2277879;78;21326;-81
2022/11/30 05:36:52;;;;;;;51.87;21.80;;;;;;;-0.12;90.80;99935.10;2278588;78;20958;-81
2022/11/30 05:39:53;;;;;;;39.20;21.17;;;;;;;-0.17;90.85;99939.91;2278864;78;21366;-83
2022/11/30 05:42:53;;;;;;;41.20;21.27;;;;;;;-0.20;90.74;99932.00;2279521;78;20907;-82
2022/11/30 05:45:53;;;;;;;35.93;20.40;;;;;;;-0.22;90.58;99941.66;2279487;78;20914;-81
2022/11/30 05:48:54;;;;;;;34.57;21.07;;;;;;;-0.25;90.86;99951.30;2279387;78;20923;-82
2022/11/30 05:51:54;;;;;;;32.07;20.27;;;;;;;-0.27;90.73;99948.13;2279260;78;20915;-82
2022/11/30 05:54:55;;;;;;;33.13;19.57;;;;;;;-0.32;90.79;99952.92;2278585;78;20935;-82
2022/11/30 05:57:55;;;;;;;39.27;19.80;;;;;;;-0.36;91.04;99949.64;2278858;78;20887;-81
2022/11/30 06:00:55;;;;;;;38.60;21.80;;;;;;;-0.39;91.22;99950.70;2277844;78;20954;-83
2022/11/30 06:03:56;;;;;;;44.20;21.20;;;;;;;-0.38;91.25;99943.51;2277547;78;20918;-82
2022/11/30 06:06:56;;;;;;;38.93;20.23;;;;;;;-0.36;91.42;99948.36;2276721;78;20907;-83
2022/11/30 06:09:57;;;;;;;35.60;19.70;;;;;;;-0.34;91.34;99951.53;2276838;78;20966;-82
2022/11/30 06:12:57;;;;;;;39.53;21.50;;;;;;;-0.32;91.19;99947.80;2278775;78;21278;-82
2022/11/30 06:15:57;;;;;;;37.27;20.17;;;;;;;-0.30;91.25;99956.50;2278961;78;20942;-81
2022/11/30 06:18:58;;;;;;;42.37;20.53;;;;;;;-0.27;91.11;99962.23;2279139;78;20942;-80
2022/11/30 06:21:58;;;;;;;38.53;21.17;;;;;;;-0.26;91.23;99958.50;2280064;78;20910;-82
2022/11/30 06:24:59;;;;;;;31.17;18.57;;;;;;;-0.22;91.13;99955.37;2279249;78;20922;-83
2022/11/30 06:27:59;;;;;;;31.83;19.23;;;;;;;-0.21;90.93;99952.02;2278482;78;20922;-82
2022/11/30 06:30:59;;;;;;;33.00;20.07;;;;;;;-0.24;90.84;99959.89;2278001;78;20915;-84
2022/11/30 06:34:00;;;;;;;38.90;19.57;;;;;;;-0.24;90.88;99962.06;2278255;78;20911;-82
2022/11/30 06:37:00;;;;;;;39.73;20.47;;;;;;;-0.22;90.88;99968.59;2277616;78;20942;-83
2022/11/30 06:40:01;;;;;;;37.73;20.97;;;;;;;-0.26;90.77;99973.00;2276671;78;20938;-83
2022/11/30 06:43:01;;;;;;;39.97;22.23;;;;;;;-0.22;92.58;99974.62;2275816;78;20981;-82
2022/11/30 06:46:02;;;;;;;39.90;19.77;;;;;;;-0.15;90.73;99977.23;2273870;78;20904;-81
2022/11/30 06:49:03;;;;;;;38.50;21.87;;;;;;;-0.16;90.91;99981.47;2274126;78;21394;-82
2022/11/30 06:52:03;;;;;;;34.07;19.87;;;;;;;-0.14;90.54;99983.76;2275254;78;20903;-83
2022/11/30 06:55:04;;;;;;;37.97;20.37;;;;;;;-0.22;90.62;99975.01;2275300;78;20943;-81
2022/11/30 06:58:04;;;;;;;35.13;20.80;;;;;;;-0.25;90.64;99976.96;2274796;78;21115;-81
2022/11/30 07:01:05;;;;;;;60.40;20.60;;;;;;;-0.25;90.75;99978.25;2274358;78;20911;-84
2022/11/30 07:04:05;;;;;;;33.93;19.43;;;;;;;-0.18;91.12;99977.02;2274308;78;20899;-83
2022/11/30 07:07:07;;;;;;;82.97;23.23;;;;;;;-0.13;90.81;99979.13;2254270;78;21367;-84
2022/11/30 07:10:08;;;;;;;49.67;20.33;;;;;;;-0.06;90.92;99971.47;2274365;78;20978;-82
2022/11/30 07:13:10;;;;;;;39.97;21.30;;;;;;;0.02;90.69;99978.08;2253483;78;20946;-84
2022/11/30 07:16:11;;;;;;;30.00;21.07;;;;;;;0.06;90.23;99976.62;2275202;78;21243;-83
2022/11/30 07:19:11;;;;;;;33.13;19.40;;;;;;;0.07;90.04;99978.01;2274938;78;20923;-83
2022/11/30 07:22:11;;;;;;;35.87;20.03;;;;;;;0.06;90.09;99973.66;2274664;78;20918;-82
2022/11/30 07:28:30;;;;;;;38.67;20.47;;;;;;;0.12;89.68;99977.94;2275079;78;20939;-84
2022/11/30 07:31:32;;;;;;;36.43;19.70;;;;;;;0.10;89.80;99974.38;2275358;78;20903;-81
2022/11/30 07:34:31;;;;;;;27.67;17.23;;;;;;;0.09;89.27;99974.27;2274081;78;20974;-81
2022/11/30 07:37:31;;;;;;;30.93;18.97;;;;;;;-0.04;88.90;99971.19;2273893;78;20879;-82
2022/11/30 07:40:32;;;;;;;32.03;18.57;;;;;;;-0.15;89.21;99978.13;2274354;78;20978;-83
2022/11/30 07:43:32;;;;;;;32.53;19.17;;;;;;;-0.22;89.41;99978.86;2275039;78;20950;-82
2022/11/30 07:46:34;;;;;;;34.53;20.20;;;;;;;-0.27;89.54;99979.81;2278549;78;20914;-82
2022/11/30 07:49:33;;;;;;;29.13;19.27;;;;;;;-0.26;89.91;99977.75;2278303;78;21267;-81
2022/11/30 07:52:33;;;;;;;36.07;19.97;;;;;;;-0.22;89.92;99977.18;2278571;78;20926;-83
2022/11/30 07:55:34;;;;;;;30.13;19.00;;;;;;;-0.19;89.95;99985.49;2279197;78;20906;-83
2022/11/30 07:58:34;;;;;;;35.73;22.97;;;;;;;-0.15;89.90;99977.23;2278677;78;20950;-83
2022/11/30 08:01:35;;;;;;;31.27;19.50;;;;;;;-0.13;89.82;99976.56;2278741;78;21314;-83
2022/11/30 08:04:37;;;;;;;26.60;18.13;;;;;;;-0.10;89.76;99974.60;2256756;78;20911;-82
2022/11/30 08:07:38;;;;;;;49.10;19.53;;;;;;;-0.09;89.37;99981.13;2278995;78;20914;-81
2022/11/30 08:10:38;;;;;;;34.47;18.97;;;;;;;-0.09;89.50;99981.13;2277636;78;20958;-81
2022/11/30 08:13:38;;;;;;;22.80;16.97;;;;;;;-0.09;89.32;99977.67;2278023;78;20907;-82
2022/11/30 08:16:39;;;;;;;35.17;19.60;;;;;;;-0.01;89.20;99977.82;2277852;78;20903;-82
2022/11/30 08:19:39;;;;;;;32.97;18.70;;;;;;;-0.01;89.20;99977.82;2277860;78;21306;-82
2022/11/30 08:22:40;;;;;;;30.60;18.63;;;;;;;0.02;89.19;99979.75;2278546;78;20946;-82
2022/11/30 08:25:40;;;;;;;27.87;18.77;;;;;;;0.06;88.98;99981.75;2279036;78;21151;-82
2022/11/30 08:28:40;;;;;;;27.50;18.27;;;;;;;0.02;88.87;99976.79;2278475;78;20914;-82
2022/11/30 08:31:41;;;;;;;30.27;19.57;;;;;;;0.01;88.53;99979.25;2278715;78;20956;-83
2022/11/30 08:34:41;;;;;;;33.23;19.80;;;;;;;0.01;88.92;99987.84;2277590;78;20887;-83
2022/11/30 08:37:42;;;;;;;37.33;20.73;;;;;;;0.05;89.06;99995.38;2277461;78;20934;-83
2022/11/30 08:40:42;;;;;;;31.17;20.43;;;;;;;0.03;88.67;99996.94;2278165;78;20946;-85
2022/11/30 08:43:42;;;;;;;29.20;18.47;;;;;;;0.04;88.62;99998.72;2277941;78;20958;-83
2022/11/30 08:46:43;;;;;;;32.20;20.90;;;;;;;0.05;88.98;99996.66;2274736;78;20903;-83
2022/11/30 08:49:43;;;;;;;27.37;19.10;;;;;;;0.04;88.77;100001.29;2274743;78;20891;-84
2022/11/30 08:52:44;;;;;;;27.87;18.87;;;;;;;-0.02;88.52;100001.70;2274504;78;20930;-82
2022/11/30 08:55:44;;;;;;;31.10;19.77;;;;;;;-0.04;88.82;100004.16;2274389;78;20934;-83
2022/11/30 08:58:44;;;;;;;51.53;19.67;;;;;;;0.03;88.95;100005.92;2274260;78;21286;-82
2022/11/30 09:01:45;;;;;;;31.77;19.87;;;;;;;0.05;88.90;100004.36;2274371;78;20898;-82
2022/11/30 09:04:47;;;;;;;30.43;19.27;;;;;;;0.09;88.92;100004.69;2273478;78;20895;-83
2022/11/30 09:07:46;;;;;;;41.33;21.27;;;;;;;0.12;88.64;100001.05;2274148;78;20931;-82
2022/11/30 09:10:46;;;;;;;33.50;21.50;;;;;;;0.15;88.83;100001.27;2273515;78;20993;-83
2022/11/30 09:13:47;;;;;;;32.43;19.40;;;;;;;0.11;88.12;100000.94;2273790;78;20891;-82
2022/11/30 09:16:47;;;;;;;67.93;21.53;;;;;;;0.07;88.65;100011.38;2273381;78;21367;-83
2022/11/30 09:19:47;;;;;;;35.90;19.80;;;;;;;0.15;88.85;100012.82;2273703;78;21318;-83
2022/11/30 09:22:48;;;;;;;28.83;18.60;;;;;;;0.14;88.25;100011.43;2272762;78;20955;-83
2022/11/30 09:25:51;;;;;;;25.97;18.33;;;;;;;0.08;88.20;100013.56;2273631;78;20914;-84
2022/11/30 09:28:51;;;;;;;27.50;17.73;;;;;;;0.13;88.32;100017.34;2273822;78;20925;-83
2022/11/30 09:31:52;;;;;;;27.13;17.80;;;;;;;0.18;87.89;100015.61;2274491;78;20919;-83
2022/11/30 09:34:52;;;;;;;29.03;18.27;;;;;;;0.22;87.96;100011.58;2273984;78;20875;-85
2022/11/30 09:37:52;;;;;;;116.53;22.13;;;;;;;0.25;87.76;100013.08;2275111;78;20927;-83
2022/11/30 09:40:53;;;;;;;26.87;17.43;;;;;;;0.25;87.70;100010.12;2274360;78;20966;-83
2022/11/30 09:43:53;;;;;;;109.20;22.70;;;;;;;0.27;87.56;100005.09;2274814;78;21347;-82
2022/11/30 09:46:54;;;;;;;27.07;18.30;;;;;;;0.29;87.71;100002.24;2275212;78;20918;-84
2022/11/30 09:49:55;;;;;;;24.47;17.90;;;;;;;0.32;87.48;99996.03;2274835;78;20911;-83
2022/11/30 09:52:54;;;;;;;27.43;18.33;;;;;;;0.37;87.60;99997.25;2274700;78;20910;-83
2022/11/30 09:55:55;;;;;;;28.57;19.13;;;;;;;0.41;87.56;99992.83;2274803;78;20910;-82
2022/11/30 09:58:55;;;;;;;36.97;19.90;;;;;;;0.46;87.27;99990.19;2275492;78;20942;-83
2022/11/30 10:01:56;;;;;;;25.33;18.33;;;;;;;0.50;87.52;99990.89;2274803;78;20918;-82
2022/11/30 10:04:56;;;;;;;29.10;19.13;;;;;;;0.59;87.36;99987.67;2275429;78;20946;-82
2022/11/30 10:07:57;;;;;;;32.60;19.80;;;;;;;0.65;87.03;99985.92;2275654;78;20907;-83
2022/11/30 10:10:57;;;;;;;24.83;17.87;;;;;;;0.65;86.70;99989.77;2273792;78;20966;-83
2022/11/30 10:13:57;;;;;;;30.33;18.27;;;;;;;0.63;86.57;99992.23;2275134;78;20899;-84
2022/11/30 10:16:58;;;;;;;26.23;18.27;;;;;;;0.63;86.62;99992.23;2273904;78;20962;-82
2022/11/30 10:19:58;;;;;;;25.80;18.33;;;;;;;0.67;86.48;99996.30;2273988;78;20938;-83
2022/11/30 10:22:59;;;;;;;24.20;17.03;;;;;;;0.73;86.44;99999.30;2273795;78;20950;-83
2022/11/30 10:25:59;;;;;;;24.27;16.93;;;;;;;0.75;86.32;99993.47;2273706;78;20934;-82
2022/11/30 10:29:04;;;;;;;23.53;17.40;;;;;;;0.74;86.11;99996.83;2274518;78;21316;-84
2022/11/30 10:32:02;;;;;;;23.10;17.33;;;;;;;0.72;85.69;99997.52;2252785;78;20950;-83
2022/11/30 10:35:02;;;;;;;25.40;17.37;;;;;;;0.66;85.55;99996.70;2274626;78;21013;-82
2022/11/30 10:38:03;;;;;;;30.17;17.33;;;;;;;0.71;86.18;99994.45;2274544;78;20934;-83
2022/11/30 10:41:03;;;;;;;28.00;18.40;;;;;;;0.73;85.55;99991.59;2273696;78;20970;-81
2022/11/30 10:44:04;;;;;;;23.90;18.07;;;;;;;0.74;85.26;99997.22;2273572;78;21040;-82
2022/11/30 10:47:04;;;;;;;28.33;19.40;;;;;;;0.76;85.71;99999.11;2274134;78;20938;-81
2022/11/30 10:50:04;;;;;;;27.27;18.10;;;;;;;0.77;84.99;99993.19;2273483;78;21251;-81
2022/11/30 10:53:05;;;;;;;30.20;20.70;;;;;;;0.70;84.60;99992.66;2273262;78;20915;-81
2022/11/30 10:56:06;;;;;;;27.00;18.43;;;;;;;0.64;85.09;99994.41;2274162;78;20891;-80
2022/11/30 10:59:06;;;;;;;26.77;19.07;;;;;;;0.55;84.90;99995.95;2274240;78;20985;-80
2022/11/30 11:02:06;;;;;;;30.90;18.43;;;;;;;0.57;85.48;99987.96;2274110;78;20902;-82
2022/11/30 11:05:06;;;;;;;29.23;19.27;;;;;;;0.58;85.46;99994.88;2274164;78;21577;-82
2022/11/30 11:08:07;;;;;;;33.00;18.83;;;;;;;0.58;85.32;99992.31;2274806;78;20926;-82
2022/11/30 11:11:07;;;;;;;26.87;18.37;;;;;;;0.63;85.61;99990.06;2274573;78;21019;-81
2022/11/30 11:14:08;;;;;;;26.90;19.23;;;;;;;0.71;85.38;99994.45;2275198;78;20957;-81
2022/11/30 11:17:08;;;;;;;214.03;28.03;;;;;;;0.74;85.21;99986.55;2275268;78;20903;-81
2022/11/30 11:20:09;;;;;;;29.07;19.37;;;;;;;0.81;85.36;99985.29;2275225;78;20950;-81
2022/11/30 11:23:09;;;;;;;29.77;19.43;;;;;;;0.87;84.91;99990.48;2274837;78;21663;-81
2022/11/30 11:26:09;;;;;;;68.37;20.93;;;;;;;0.89;84.91;99991.48;2274763;78;20890;-81
2022/11/30 11:29:10;;;;;;;27.53;18.80;;;;;;;0.92;84.57;99997.23;2274114;78;20949;-81
2022/11/30 11:32:11;;;;;;;28.03;18.90;;;;;;;0.91;84.31;99986.45;2273615;78;20907;-81
2022/11/30 11:35:11;;;;;;;28.70;18.60;;;;;;;0.85;84.14;99982.14;2274807;78;20906;-81
2022/11/30 11:38:11;;;;;;;24.83;18.03;;;;;;;0.83;84.27;99982.43;2274063;78;21349;-81
2022/11/30 11:41:12;;;;;;;24.87;17.27;;;;;;;0.81;83.79;99982.72;2273777;78;20957;-81
2022/11/30 11:44:13;;;;;;;91.60;22.80;;;;;;;0.79;83.95;99983.01;2274358;78;20954;-83
2022/11/30 11:47:14;;;;;;;27.13;17.97;;;;;;;0.76;84.16;99983.69;2278588;78;20874;-81
2022/11/30 11:50:14;;;;;;;25.33;18.17;;;;;;;0.78;84.16;99981.22;2278038;78;20993;-81
2022/11/30 11:53:21;;;;;;;25.00;17.63;;;;;;;0.83;84.38;99973.43;2278179;78;20942;-82
2022/11/30 11:56:15;;;;;;;500.63;43.87;;;;;;;0.90;84.31;99984.66;2278576;78;21163;-80
2022/11/30 11:59:16;;;;;;;36.33;19.33;;;;;;;0.97;84.08;99976.97;2276591;78;20969;-80
2022/11/30 12:02:16;;;;;;;80.07;22.87;;;;;;;1.01;84.17;99974.70;2277265;78;20908;-82
2022/11/30 12:05:17;;;;;;;27.87;18.53;;;;;;;1.03;83.78;99975.70;2277255;78;21287;-80
2022/11/30 12:08:18;;;;;;;60.03;19.17;;;;;;;1.06;84.07;99979.77;2277590;78;20906;-81
2022/11/30 12:11:17;;;;;;;26.97;17.90;;;;;;;1.11;83.83;99978.78;2278063;78;21013;-81
2022/11/30 12:14:18;;;;;;;25.63;17.33;;;;;;;1.12;83.80;99978.00;2277148;78;20914;-80
2022/11/30 12:17:18;;;;;;;23.30;17.40;;;;;;;1.13;83.58;99982.34;2278140;78;20887;-81
2022/11/30 12:20:19;;;;;;;21.97;15.97;;;;;;;1.13;83.24;99984.92;2278188;78;20973;-82
2022/11/30 12:23:19;;;;;;;26.20;16.83;;;;;;;1.10;82.37;99984.32;2279197;78;20906;-83
2022/11/30 12:26:19;;;;;;;22.00;14.90;;;;;;;1.05;82.73;99988.27;2278877;78;20923;-83
2022/11/30 12:29:20;;;;;;;22.50;15.03;;;;;;;0.94;82.68;99986.66;2278803;78;20914;-81
2022/11/30 12:32:20;;;;;;;21.57;14.70;;;;;;;0.79;82.04;99980.44;2278185;78;21346;-81
2022/11/30 12:35:21;;;;;;;20.93;15.33;;;;;;;0.78;83.28;99992.39;2277518;78;20923;-82
2022/11/30 12:38:21;;;;;;;24.03;15.80;;;;;;;0.78;83.00;100000.11;2277541;78;20921;-80
2022/11/30 12:41:21;;;;;;;23.60;14.10;;;;;;;0.76;82.86;100002.08;2277212;78;20962;-81
2022/11/30 12:44:27;;;;;;;17.23;13.43;;;;;;;0.78;83.10;100006.92;2273290;78;21040;-81
2022/11/30 12:47:24;;;;;;;19.90;14.20;;;;;;;0.80;82.64;99997.64;2232876;80;20957;-80
2022/11/30 12:50:23;;;;;;;22.20;15.30;;;;;;;0.76;82.74;99998.22;2232743;79;21027;-80
2022/11/30 12:53:23;;;;;;;25.47;14.60;;;;;;;0.71;83.11;99996.62;2232923;79;20937;-80
2022/11/30 12:56:23;;;;;;;26.57;15.93;;;;;;;0.80;83.48;100006.64;2233309;80;20953;-79
2022/11/30 12:59:25;;;;;;;18.83;14.70;;;;;;;0.86;82.84;100005.38;2233004;79;21361;-81
2022/11/30 13:02:24;;;;;;;20.43;15.13;;;;;;;0.81;82.45;99994.28;2232930;79;21392;-80
2022/11/30 13:05:25;;;;;;;48.60;17.03;;;;;;;0.83;83.18;99997.85;2232672;79;20922;-83
2022/11/30 13:08:25;;;;;;;20.27;14.60;;;;;;;0.88;83.08;99996.52;2231908;79;20917;-81
2022/11/30 13:11:26;;;;;;;23.00;15.33;;;;;;;0.89;83.13;99994.45;2231622;79;21758;-81
2022/11/30 13:14:26;;;;;;;23.13;13.90;;;;;;;0.97;83.16;99992.00;2232271;79;20946;-82
2022/11/30 13:17:30;;;;;;;22.20;15.03;;;;;;;0.99;82.88;99986.56;2232012;79;20946;-81
2022/11/30 13:20:27;;;;;;;18.87;13.43;;;;;;;0.99;82.82;99982.71;2231345;79;20945;-81
2022/11/30 13:23:30;;;;;;;17.77;14.20;;;;;;;1.02;82.80;99979.06;2231109;79;21317;-81
2022/11/30 13:26:28;;;;;;;18.27;14.00;;;;;;;1.03;82.58;99978.27;2231812;80;21440;-80
2022/11/30 13:29:28;;;;;;;18.73;14.93;;;;;;;1.00;82.02;99976.78;2232525;79;20890;-80
2022/11/30 13:32:31;;;;;;;30.30;16.17;;;;;;;0.96;81.89;99972.22;2232343;80;20926;-81
2022/11/30 13:35:29;;;;;;;24.47;15.80;;;;;;;0.92;82.46;99972.80;2233354;79;20878;-81
2022/11/30 13:38:29;;;;;;;30.57;17.23;;;;;;;0.91;82.37;99971.02;2233868;79;21419;-80
2022/11/30 13:41:31;;;;;;;21.27;15.03;;;;;;;0.94;82.20;99968.27;2233792;79;20997;-81
2022/11/30 13:44:31;;;;;;;155.43;22.87;;;;;;;0.94;82.20;99968.27;2235494;78;20914;-82
2022/11/30 13:47:33;;;;;;;28.87;16.83;;;;;;;0.91;82.21;99972.30;2278613;78;20903;-81
2022/11/30 13:50:31;;;;;;;25.40;16.97;;;;;;;0.84;81.85;99967.50;2279167;78;21270;-81
2022/11/30 13:53:34;;;;;;;26.57;17.97;;;;;;;0.77;81.48;99976.88;2278712;78;20959;-82
2022/11/30 13:56:32;;;;;;;27.43;18.77;;;;;;;0.65;81.62;99979.50;2278474;78;20902;-82